Time;durP1;ratioP1;P1;durP2;ratioP2;P2;SDS_P1;SDS_P2;PMS_P1;PMS_P2;Temp;Humidity;BMP_temperature;BMP_pressure;BME280_temperature;BME280_humidity;BME280_pressure;Samples;Min_cycle;Max_cycle;Signal;HPM_P1;HPM_P2
2024/04/03 00:00:15;;;;;;;7.30;1.60;;;;;;;;;;4995062;28;20042;-56
2024/04/03 00:02:40;;;;;;;9.05;1.95;;;;;;;;;;4994839;28;20511;-57
2024/04/03 00:05:05;;;;;;;5.25;1.40;;;;;;;;;;4994565;28;20030;-57
2024/04/03 00:07:31;;;;;;;8.60;1.90;;;;;;;;;;4994559;28;20030;-57
2024/04/03 00:09:57;;;;;;;9.73;2.10;;;;;;;;;;4994843;28;20456;-58
2024/04/03 00:12:22;;;;;;;5.82;1.45;;;;;;;;;;4994904;28;20479;-56
2024/04/03 00:14:47;;;;;;;6.60;1.58;;;;;;;;;;4998153;28;20448;-57
2024/04/03 00:17:12;;;;;;;9.38;2.15;;;;;;;;;;4998523;28;20424;-55
2024/04/03 00:19:38;;;;;;;7.43;1.80;;;;;;;;;;4998733;28;20026;-57
2024/04/03 00:22:03;;;;;;;8.25;1.75;;;;;;;;;;4998738;28;20029;-57
2024/04/03 00:24:28;;;;;;;7.90;1.60;;;;;;;;;;4998445;28;20018;-56
2024/04/03 00:26:53;;;;;;;8.10;1.90;;;;;;;;;;4998641;28;20072;-58
2024/04/03 00:29:18;;;;;;;7.40;1.67;;;;;;;;;;4998518;28;20463;-58
2024/04/03 00:31:45;;;;;;;11.20;1.80;;;;;;;;;;4999039;28;20022;-55
2024/04/03 00:34:10;;;;;;;6.68;1.73;;;;;;;;;;4998493;28;20081;-56
2024/04/03 00:36:35;;;;;;;5.30;1.67;;;;;;;;;;4998313;28;20027;-57
2024/04/03 00:39:00;;;;;;;7.32;1.90;;;;;;;;;;4997397;28;20444;-57
2024/04/03 00:41:29;;;;;;;9.82;1.92;;;;;;;;;;4998114;28;20030;-58
2024/04/03 00:43:54;;;;;;;7.03;1.75;;;;;;;;;;4998518;28;20026;-57
2024/04/03 00:46:20;;;;;;;7.50;2.00;;;;;;;;;;4998009;28;20041;-56
2024/04/03 00:48:45;;;;;;;5.35;1.75;;;;;;;;;;4997960;28;20041;-58
2024/04/03 00:51:10;;;;;;;5.10;1.58;;;;;;;;;;4998107;28;20018;-58
2024/04/03 00:53:37;;;;;;;7.32;2.30;;;;;;;;;;4998065;28;20458;-57
2024/04/03 00:56:03;;;;;;;8.07;1.88;;;;;;;;;;4997821;28;20040;-57
2024/04/03 00:58:28;;;;;;;5.55;1.70;;;;;;;;;;4998025;28;20101;-57
2024/04/03 01:00:53;;;;;;;7.82;1.73;;;;;;;;;;4996952;28;20407;-55
2024/04/03 01:03:18;;;;;;;9.80;2.15;;;;;;;;;;4997836;28;20399;-57
2024/04/03 01:05:43;;;;;;;5.47;1.80;;;;;;;;;;4997656;28;20368;-57
2024/04/03 01:08:09;;;;;;;8.88;2.00;;;;;;;;;;4997793;28;20506;-58
2024/04/03 01:10:34;;;;;;;6.68;1.90;;;;;;;;;;4997609;28;20448;-57
2024/04/03 01:13:02;;;;;;;7.40;2.00;;;;;;;;;;4997211;28;20388;-57
2024/04/03 01:15:30;;;;;;;5.85;1.80;;;;;;;;;;4996983;28;20101;-56
2024/04/03 01:17:56;;;;;;;5.63;2.00;;;;;;;;;;4997637;28;20116;-58
2024/04/03 01:20:21;;;;;;;11.38;2.28;;;;;;;;;;4997801;28;20105;-57
2024/04/03 01:22:46;;;;;;;7.68;1.83;;;;;;;;;;4997464;28;20030;-57
2024/04/03 01:25:11;;;;;;;8.18;1.98;;;;;;;;;;4997114;28;20419;-57
2024/04/03 01:27:37;;;;;;;10.20;2.22;;;;;;;;;;4997453;28;20384;-58
2024/04/03 01:30:02;;;;;;;11.45;2.20;;;;;;;;;;4997140;28;20351;-58
2024/04/03 01:32:28;;;;;;;8.38;2.13;;;;;;;;;;4997356;28;20367;-58
2024/04/03 01:34:53;;;;;;;6.90;2.00;;;;;;;;;;4997098;28;20096;-58
2024/04/03 01:37:20;;;;;;;7.75;2.10;;;;;;;;;;4997287;28;20050;-58
2024/04/03 01:39:45;;;;;;;6.97;2.00;;;;;;;;;;4997252;28;20023;-58
2024/04/03 01:42:13;;;;;;;6.85;2.33;;;;;;;;;;4997518;28;20451;-57
2024/04/03 01:44:39;;;;;;;10.68;2.58;;;;;;;;;;4997035;28;20419;-58
2024/04/03 01:47:04;;;;;;;10.98;2.67;;;;;;;;;;4993214;28;20014;-58
2024/04/03 01:49:29;;;;;;;11.80;2.25;;;;;;;;;;4996994;28;20079;-58
2024/04/03 01:51:54;;;;;;;8.40;2.10;;;;;;;;;;4997054;28;20014;-57
2024/04/03 01:54:20;;;;;;;9.23;2.20;;;;;;;;;;4996764;28;20018;-55
2024/04/03 01:56:45;;;;;;;8.00;2.30;;;;;;;;;;4996720;28;20097;-58
2024/04/03 01:59:10;;;;;;;7.20;2.58;;;;;;;;;;4996867;28;20348;-58
2024/04/03 02:01:35;;;;;;;8.85;2.60;;;;;;;;;;4996742;28;20022;-58
2024/04/03 02:04:00;;;;;;;10.35;2.28;;;;;;;;;;4996873;28;20027;-56
2024/04/03 02:06:26;;;;;;;7.35;2.20;;;;;;;;;;4995533;28;20378;-55
2024/04/03 02:08:51;;;;;;;9.48;2.42;;;;;;;;;;4995635;28;20037;-57
2024/04/03 02:11:16;;;;;;;6.65;2.20;;;;;;;;;;4996889;28;20026;-58
2024/04/03 02:13:42;;;;;;;5.57;1.98;;;;;;;;;;4996582;28;20022;-58
2024/04/03 02:16:07;;;;;;;9.63;2.28;;;;;;;;;;4996733;28;20019;-58
2024/04/03 02:18:32;;;;;;;8.00;2.60;;;;;;;;;;4996517;28;20018;-58
2024/04/03 02:20:57;;;;;;;7.13;2.35;;;;;;;;;;4996423;28;20344;-57
2024/04/03 02:23:22;;;;;;;10.23;2.50;;;;;;;;;;4996098;28;20026;-57
2024/04/03 02:25:48;;;;;;;10.20;2.60;;;;;;;;;;4996376;28;20018;-57
2024/04/03 02:28:13;;;;;;;11.18;2.65;;;;;;;;;;4996313;28;20355;-57
2024/04/03 02:30:38;;;;;;;6.82;2.35;;;;;;;;;;4996188;28;20026;-54
2024/04/03 02:33:03;;;;;;;9.57;2.63;;;;;;;;;;4996237;28;20031;-58
2024/04/03 02:35:29;;;;;;;8.85;2.25;;;;;;;;;;4995453;28;20022;-57
2024/04/03 02:37:54;;;;;;;8.20;2.22;;;;;;;;;;4996051;28;20029;-58
2024/04/03 02:40:19;;;;;;;9.25;3.33;;;;;;;;;;4996069;28;20112;-57
2024/04/03 02:42:44;;;;;;;8.00;2.05;;;;;;;;;;4996319;28;20034;-58
2024/04/03 02:45:10;;;;;;;10.68;2.60;;;;;;;;;;4995858;28;20495;-57
2024/04/03 02:47:35;;;;;;;8.00;2.47;;;;;;;;;;4994961;28;20455;-58
2024/04/03 02:50:01;;;;;;;10.80;2.45;;;;;;;;;;4996161;28;20042;-57
2024/04/03 02:52:26;;;;;;;12.88;3.30;;;;;;;;;;4996064;28;20034;-56
2024/04/03 02:54:51;;;;;;;8.70;2.80;;;;;;;;;;4995668;28;20019;-56
2024/04/03 02:57:16;;;;;;;7.72;2.40;;;;;;;;;;4996059;28;20389;-58
2024/04/03 02:59:44;;;;;;;12.32;2.92;;;;;;;;;;4995632;28;20030;-58
2024/04/03 03:02:11;;;;;;;9.27;2.65;;;;;;;;;;5041104;23;20041;-88
2024/04/03 03:04:43;;;;;;;12.10;2.97;;;;;;;;;;5038151;28;20029;-88
2024/04/03 03:07:10;;;;;;;11.75;2.85;;;;;;;;;;5039138;28;20036;-88
2024/04/03 03:09:35;;;;;;;8.25;3.15;;;;;;;;;;5055745;28;20040;-87
2024/04/03 03:12:03;;;;;;;12.07;3.10;;;;;;;;;;5037812;28;20029;-88
2024/04/03 03:14:29;;;;;;;12.23;3.08;;;;;;;;;;5038072;28;20017;-88
2024/04/03 03:16:57;;;;;;;10.48;2.90;;;;;;;;;;5037902;28;20369;-88
2024/04/03 03:19:24;;;;;;;12.80;2.55;;;;;;;;;;5037947;28;20445;-88
2024/04/03 03:21:50;;;;;;;12.85;3.03;;;;;;;;;;5055629;28;20028;-88
2024/04/03 03:24:19;;;;;;;10.55;2.70;;;;;;;;;;5037820;28;20028;-88
2024/04/03 03:26:46;;;;;;;11.55;2.78;;;;;;;;;;5037091;28;20033;-88
2024/04/03 03:29:13;;;;;;;10.38;3.22;;;;;;;;;;5055414;28;20040;-88
2024/04/03 03:31:39;;;;;;;7.32;2.50;;;;;;;;;;5055182;28;20021;-88
2024/04/03 03:34:05;;;;;;;9.88;2.90;;;;;;;;;;5037507;28;20461;-88
2024/04/03 03:36:32;;;;;;;12.77;3.13;;;;;;;;;;5055603;28;20110;-88
2024/04/03 03:38:58;;;;;;;10.02;2.50;;;;;;;;;;5054530;28;20051;-88
2024/04/03 03:41:25;;;;;;;13.13;2.70;;;;;;;;;;5038102;28;20349;-88
2024/04/03 03:43:51;;;;;;;12.77;2.97;;;;;;;;;;5037698;28;20079;-88
2024/04/03 03:46:19;;;;;;;7.38;2.50;;;;;;;;;;5038044;28;20107;-88
2024/04/03 03:54:15;;;;;;;10.98;3.25;;;;;;;;;;5055403;28;20556;-89
2024/04/03 03:56:41;;;;;;;7.28;2.40;;;;;;;;;;5055701;28;20100;-89
2024/04/03 03:59:08;;;;;;;10.40;2.90;;;;;;;;;;5055026;28;20035;-89
2024/04/03 04:01:33;;;;;;;8.65;3.05;;;;;;;;;;5067937;23;20150;-58
2024/04/03 04:03:58;;;;;;;10.30;2.65;;;;;;;;;;5054696;28;20362;-55
2024/04/03 04:06:23;;;;;;;15.45;3.30;;;;;;;;;;5055124;28;20441;-57
2024/04/03 04:08:48;;;;;;;15.95;3.63;;;;;;;;;;5055235;28;20017;-56
2024/04/03 04:11:14;;;;;;;9.20;3.13;;;;;;;;;;5054584;28;20025;-55
2024/04/03 04:13:39;;;;;;;13.15;3.78;;;;;;;;;;5054564;28;20414;-55
2024/04/03 04:16:04;;;;;;;14.65;3.58;;;;;;;;;;5054536;28;20055;-55
2024/04/03 04:18:30;;;;;;;9.52;3.22;;;;;;;;;;5054424;28;20017;-58
2024/04/03 04:20:56;;;;;;;10.32;3.50;;;;;;;;;;5054417;28;20166;-58
2024/04/03 04:23:21;;;;;;;8.77;3.42;;;;;;;;;;5054651;28;20048;-56
2024/04/03 04:25:54;;;;;;;7.32;2.92;;;;;;;;;;5054565;28;20133;-57
2024/04/03 04:28:20;;;;;;;10.93;3.15;;;;;;;;;;5054436;28;20460;-56
2024/04/03 04:30:45;;;;;;;10.25;3.03;;;;;;;;;;5054290;28;20017;-53
2024/04/03 04:33:10;;;;;;;10.30;3.05;;;;;;;;;;5054235;28;20508;-57
2024/04/03 04:35:35;;;;;;;8.40;2.92;;;;;;;;;;5054237;28;20010;-57
2024/04/03 04:38:01;;;;;;;11.32;2.80;;;;;;;;;;5054245;28;20028;-57
2024/04/03 04:40:27;;;;;;;11.23;2.90;;;;;;;;;;5054208;28;20083;-56
2024/04/03 04:42:53;;;;;;;11.90;2.85;;;;;;;;;;5054423;28;20071;-56
2024/04/03 04:45:18;;;;;;;10.02;2.60;;;;;;;;;;5054139;28;20037;-57
2024/04/03 04:47:45;;;;;;;11.35;2.72;;;;;;;;;;5054126;28;20024;-55
2024/04/03 04:50:11;;;;;;;14.40;3.13;;;;;;;;;;5054051;28;20448;-57
2024/04/03 04:52:36;;;;;;;11.15;2.80;;;;;;;;;;5054062;28;20021;-56
2024/04/03 04:55:01;;;;;;;11.82;2.80;;;;;;;;;;5036850;28;20021;-56
2024/04/03 04:57:27;;;;;;;12.95;3.00;;;;;;;;;;5054549;28;20021;-55
2024/04/03 04:59:52;;;;;;;8.77;2.75;;;;;;;;;;5055915;28;20029;-54
2024/04/03 05:02:17;;;;;;;11.43;2.97;;;;;;;;;;5057505;28;20063;-58
2024/04/03 05:04:42;;;;;;;10.27;2.92;;;;;;;;;;5057596;28;20106;-56
2024/04/03 05:07:08;;;;;;;10.48;2.72;;;;;;;;;;5057635;28;20028;-57
2024/04/03 05:09:33;;;;;;;12.25;3.05;;;;;;;;;;5057648;28;20061;-57
2024/04/03 05:11:58;;;;;;;6.28;2.45;;;;;;;;;;5057721;28;20103;-58
2024/04/03 05:14:24;;;;;;;8.93;2.58;;;;;;;;;;5057372;28;20020;-56
2024/04/03 05:16:50;;;;;;;11.40;2.80;;;;;;;;;;5057308;28;20497;-56
2024/04/03 05:19:15;;;;;;;11.85;2.90;;;;;;;;;;5057339;28;20044;-57
2024/04/03 05:21:40;;;;;;;9.00;2.80;;;;;;;;;;5057279;28;20060;-57
2024/04/03 05:24:06;;;;;;;11.70;2.88;;;;;;;;;;5057207;28;20021;-57
2024/04/03 05:26:31;;;;;;;10.25;2.80;;;;;;;;;;5057187;28;20029;-57
2024/04/03 05:28:57;;;;;;;9.85;2.80;;;;;;;;;;5057645;28;20032;-57
2024/04/03 05:31:23;;;;;;;14.50;3.10;;;;;;;;;;5057074;28;20484;-56
2024/04/03 05:33:49;;;;;;;10.77;2.92;;;;;;;;;;5039650;28;20039;-58
2024/04/03 05:36:15;;;;;;;11.88;3.28;;;;;;;;;;5056967;28;20052;-58
2024/04/03 05:38:40;;;;;;;12.63;3.00;;;;;;;;;;5057218;28;20017;-56
2024/04/03 05:41:05;;;;;;;12.43;2.95;;;;;;;;;;5056905;28;20017;-58
2024/04/03 05:43:31;;;;;;;8.00;2.80;;;;;;;;;;5056909;28;20118;-57
2024/04/03 05:45:56;;;;;;;11.25;2.47;;;;;;;;;;5056807;28;20043;-57
2024/04/03 05:48:22;;;;;;;13.13;3.05;;;;;;;;;;5056775;28;20036;-56
2024/04/03 05:50:47;;;;;;;11.48;2.72;;;;;;;;;;5056886;28;20017;-57
2024/04/03 05:53:13;;;;;;;8.50;2.33;;;;;;;;;;5056647;28;20017;-58
2024/04/03 05:55:38;;;;;;;11.70;3.15;;;;;;;;;;5057475;28;20342;-57
2024/04/03 05:58:03;;;;;;;12.32;2.75;;;;;;;;;;5056559;28;20366;-56
2024/04/03 06:00:29;;;;;;;12.00;3.28;;;;;;;;;;5056544;28;20483;-57
2024/04/03 06:02:54;;;;;;;10.43;2.80;;;;;;;;;;5056495;28;20037;-58
2024/04/03 06:05:19;;;;;;;12.88;2.97;;;;;;;;;;5056448;28;20037;-54
2024/04/03 06:07:49;;;;;;;15.10;2.88;;;;;;;;;;5056373;28;20021;-58
2024/04/03 06:10:15;;;;;;;13.88;3.05;;;;;;;;;;5055679;28;20053;-57
2024/04/03 06:12:40;;;;;;;8.38;2.35;;;;;;;;;;5055814;28;20060;-58
2024/04/03 06:15:06;;;;;;;11.85;3.13;;;;;;;;;;5056272;28;20064;-57
2024/04/03 06:17:31;;;;;;;15.15;3.17;;;;;;;;;;5056503;28;20028;-58
2024/04/03 06:19:57;;;;;;;10.85;3.05;;;;;;;;;;5056161;28;20373;-58
2024/04/03 06:22:22;;;;;;;8.55;2.92;;;;;;;;;;5056108;28;20426;-58
2024/04/03 06:24:47;;;;;;;9.75;2.90;;;;;;;;;;5056064;28;20059;-58
2024/04/03 06:27:12;;;;;;;10.02;3.13;;;;;;;;;;5055981;28;20079;-58
2024/04/03 06:29:37;;;;;;;8.05;2.95;;;;;;;;;;5056170;28;20098;-58
2024/04/03 06:32:04;;;;;;;11.88;3.65;;;;;;;;;;5055913;28;20496;-58
2024/04/03 06:34:29;;;;;;;11.35;3.28;;;;;;;;;;5055925;28;20020;-58
2024/04/03 06:36:54;;;;;;;10.85;3.17;;;;;;;;;;5038243;28;20051;-58
2024/04/03 06:39:20;;;;;;;10.68;2.70;;;;;;;;;;5055861;28;20392;-57
2024/04/03 06:41:45;;;;;;;14.38;3.35;;;;;;;;;;5055732;28;20036;-57
2024/04/03 06:44:10;;;;;;;10.75;3.00;;;;;;;;;;5055768;28;20098;-58
2024/04/03 06:46:35;;;;;;;14.27;3.42;;;;;;;;;;5055628;28;20036;-58
2024/04/03 06:49:01;;;;;;;12.63;3.00;;;;;;;;;;5055783;28;20059;-59
2024/04/03 06:51:26;;;;;;;7.82;2.78;;;;;;;;;;5038190;28;20025;-59
2024/04/03 06:53:51;;;;;;;10.10;3.28;;;;;;;;;;5055751;28;20464;-58
2024/04/03 06:56:16;;;;;;;11.68;3.22;;;;;;;;;;5055482;28;20390;-59
2024/04/03 06:58:42;;;;;;;13.02;3.35;;;;;;;;;;5055492;28;20024;-59
2024/04/03 07:01:08;;;;;;;12.45;3.55;;;;;;;;;;5055794;28;20377;-59
2024/04/03 07:03:34;;;;;;;10.13;2.70;;;;;;;;;;5055643;28;20020;-59
2024/04/03 07:05:59;;;;;;;11.70;3.30;;;;;;;;;;5056094;28;20315;-59
2024/04/03 07:08:25;;;;;;;8.82;3.30;;;;;;;;;;5055912;28;20024;-59
2024/04/03 07:10:50;;;;;;;16.65;3.58;;;;;;;;;;5055251;28;20150;-59
2024/04/03 07:13:16;;;;;;;10.10;2.85;;;;;;;;;;5055318;28;20048;-58
2024/04/03 07:15:45;;;;;;;9.43;2.80;;;;;;;;;;5055785;28;20017;-59
2024/04/03 07:18:11;;;;;;;12.52;3.00;;;;;;;;;;5055325;28;20017;-59
2024/04/03 07:20:36;;;;;;;13.25;3.42;;;;;;;;;;5037699;28;20044;-59
2024/04/03 07:23:02;;;;;;;11.85;3.42;;;;;;;;;;5054858;28;20045;-57
2024/04/03 07:25:27;;;;;;;9.82;3.42;;;;;;;;;;5055542;28;20017;-60
2024/04/03 07:27:52;;;;;;;14.20;3.00;;;;;;;;;;5055090;28;20029;-59
2024/04/03 07:30:18;;;;;;;14.88;3.38;;;;;;;;;;5054846;28;20016;-58
2024/04/03 07:32:44;;;;;;;8.82;2.83;;;;;;;;;;5055077;28;20050;-59
2024/04/03 07:35:09;;;;;;;12.88;3.25;;;;;;;;;;5055216;28;20121;-59
2024/04/03 07:37:39;;;;;;;12.60;3.15;;;;;;;;;;5054840;28;20028;-59
2024/04/03 07:40:08;;;;;;;9.77;3.15;;;;;;;;;;5054725;28;20409;-59
2024/04/03 07:42:35;;;;;;;8.88;2.92;;;;;;;;;;5055003;28;20339;-60
2024/04/03 07:45:00;;;;;;;11.68;3.15;;;;;;;;;;5054738;28;20029;-59
2024/04/03 07:47:27;;;;;;;9.10;2.83;;;;;;;;;;5054787;28;20118;-59
2024/04/03 07:49:52;;;;;;;10.23;2.83;;;;;;;;;;5054842;28;20020;-59
2024/04/03 07:52:18;;;;;;;9.95;2.65;;;;;;;;;;5054701;28;20032;-58
2024/04/03 07:54:43;;;;;;;10.13;2.70;;;;;;;;;;5054891;28;20013;-59
2024/04/03 07:57:08;;;;;;;9.18;2.90;;;;;;;;;;5054488;28;20025;-59
2024/04/03 07:59:34;;;;;;;11.63;3.25;;;;;;;;;;5054689;28;20108;-59
2024/04/03 08:01:59;;;;;;;11.13;2.65;;;;;;;;;;5054801;28;20495;-59
2024/04/03 08:04:25;;;;;;;11.80;3.20;;;;;;;;;;5054951;28;20107;-58
2024/04/03 08:06:50;;;;;;;11.88;2.85;;;;;;;;;;5054429;28;20020;-58
2024/04/03 08:09:16;;;;;;;11.50;2.75;;;;;;;;;;5054507;28;20021;-59
2024/04/03 08:11:41;;;;;;;12.35;3.08;;;;;;;;;;5054656;28;20560;-57
2024/04/03 08:14:07;;;;;;;17.45;3.55;;;;;;;;;;5054666;28;20013;-59
2024/04/03 08:16:34;;;;;;;10.40;2.95;;;;;;;;;;5054778;28;20017;-57
2024/04/03 08:19:00;;;;;;;11.38;2.60;;;;;;;;;;5054481;28;20457;-57
2024/04/03 08:21:25;;;;;;;9.25;3.00;;;;;;;;;;5054386;28;20021;-58
2024/04/03 08:23:50;;;;;;;6.82;2.80;;;;;;;;;;5054283;28;20440;-59
2024/04/03 08:26:15;;;;;;;11.68;3.05;;;;;;;;;;5054443;28;20361;-58
2024/04/03 08:28:41;;;;;;;11.25;2.90;;;;;;;;;;5054422;28;20430;-58
2024/04/03 08:31:10;;;;;;;13.85;3.03;;;;;;;;;;5054137;28;20078;-58
2024/04/03 08:33:36;;;;;;;14.65;3.17;;;;;;;;;;5054248;28;20017;-56
2024/04/03 08:36:01;;;;;;;8.05;2.55;;;;;;;;;;5058172;28;20105;-56
2024/04/03 08:38:27;;;;;;;9.52;2.75;;;;;;;;;;5058194;28;20445;-58
2024/04/03 08:40:52;;;;;;;16.90;3.40;;;;;;;;;;5058463;28;20552;-58
2024/04/03 08:43:18;;;;;;;10.35;2.83;;;;;;;;;;5057988;28;20430;-57
2024/04/03 08:45:44;;;;;;;9.68;2.38;;;;;;;;;;5057959;28;20021;-59
2024/04/03 08:48:10;;;;;;;9.00;2.72;;;;;;;;;;5057749;28;20105;-58
2024/04/03 08:50:36;;;;;;;11.15;2.47;;;;;;;;;;5057927;28;20107;-58
2024/04/03 08:53:01;;;;;;;11.52;2.85;;;;;;;;;;5058043;28;20060;-58
2024/04/03 08:55:27;;;;;;;9.15;2.42;;;;;;;;;;5058146;28;20028;-58
2024/04/03 08:57:52;;;;;;;8.77;2.45;;;;;;;;;;5057957;28;20021;-58
2024/04/03 09:00:17;;;;;;;10.95;2.50;;;;;;;;;;5058120;28;20035;-58
2024/04/03 09:02:43;;;;;;;8.48;2.55;;;;;;;;;;5057668;28;20111;-58
2024/04/03 09:05:09;;;;;;;8.98;2.50;;;;;;;;;;5057835;28;20339;-58
2024/04/03 09:07:34;;;;;;;8.90;2.33;;;;;;;;;;5057534;28;20031;-58
2024/04/03 09:09:59;;;;;;;10.27;2.67;;;;;;;;;;5057576;28;20017;-59
2024/04/03 09:12:25;;;;;;;9.88;2.47;;;;;;;;;;5039813;28;20013;-59
2024/04/03 09:14:50;;;;;;;7.55;2.40;;;;;;;;;;5056588;28;20048;-59
2024/04/03 09:17:16;;;;;;;10.02;2.92;;;;;;;;;;5056766;28;20043;-57
2024/04/03 09:19:48;;;;;;;11.05;2.75;;;;;;;;;;5057280;28;20021;-56
2024/04/03 09:22:13;;;;;;;8.57;2.30;;;;;;;;;;5057722;28;20029;-58
2024/04/03 09:24:39;;;;;;;6.03;2.15;;;;;;;;;;5056668;28;20017;-57
2024/04/03 09:27:08;;;;;;;7.97;2.30;;;;;;;;;;5057239;28;20024;-59
2024/04/03 09:29:34;;;;;;;6.00;2.15;;;;;;;;;;5057317;28;20334;-58
2024/04/03 09:32:03;;;;;;;9.20;2.30;;;;;;;;;;5057119;28;20056;-56
2024/04/03 09:34:31;;;;;;;9.23;2.20;;;;;;;;;;5056795;28;20047;-58
2024/04/03 09:36:56;;;;;;;10.63;3.00;;;;;;;;;;5056570;28;20020;-58
2024/04/03 09:39:22;;;;;;;7.95;2.42;;;;;;;;;;5039312;28;20394;-59
2024/04/03 09:41:50;;;;;;;8.63;2.05;;;;;;;;;;5057143;28;20110;-57
2024/04/03 09:44:17;;;;;;;7.40;2.30;;;;;;;;;;5056886;28;20013;-58
2024/04/03 09:46:51;;;;;;;6.95;2.05;;;;;;;;;;5056409;28;20025;-58
2024/04/03 09:49:18;;;;;;;8.32;2.33;;;;;;;;;;5057332;28;20104;-58
2024/04/03 09:51:43;;;;;;;10.32;2.70;;;;;;;;;;5056816;28;20075;-58
2024/04/03 09:54:10;;;;;;;5.65;1.63;;;;;;;;;;5056774;28;20017;-58
2024/04/03 09:56:36;;;;;;;6.30;2.15;;;;;;;;;;5056439;28;20029;-58
2024/04/03 09:59:02;;;;;;;6.88;2.13;;;;;;;;;;5056595;28;20373;-58
2024/04/03 10:01:29;;;;;;;4.70;1.98;;;;;;;;;;5056335;28;20098;-58
2024/04/03 10:04:01;;;;;;;6.22;2.35;;;;;;;;;;5056786;28;20032;-56
2024/04/03 10:06:27;;;;;;;5.53;1.98;;;;;;;;;;5056395;28;20047;-58
2024/04/03 10:08:52;;;;;;;9.23;1.92;;;;;;;;;;5056737;28;20063;-58
2024/04/03 10:11:17;;;;;;;5.45;1.83;;;;;;;;;;5055948;28;20039;-58
2024/04/03 10:13:47;;;;;;;6.88;1.95;;;;;;;;;;5056226;28;20028;-59
2024/04/03 10:16:13;;;;;;;6.60;1.80;;;;;;;;;;5056191;28;20104;-55
2024/04/03 10:18:39;;;;;;;5.05;1.70;;;;;;;;;;5038684;28;20174;-60
2024/04/03 10:21:07;;;;;;;6.90;1.70;;;;;;;;;;5056244;28;20021;-58
2024/04/03 10:23:42;;;;;;;4.70;1.60;;;;;;;;;;5056504;28;20016;-58
2024/04/03 10:26:08;;;;;;;5.43;1.55;;;;;;;;;;5055690;28;20095;-56
2024/04/03 10:28:33;;;;;;;5.20;1.70;;;;;;;;;;5055976;28;20025;-57
2024/04/03 10:30:58;;;;;;;4.20;1.40;;;;;;;;;;5038448;28;20033;-57
2024/04/03 10:33:24;;;;;;;3.92;1.33;;;;;;;;;;5056038;28;20021;-56
2024/04/03 10:35:49;;;;;;;3.28;1.30;;;;;;;;;;5055779;28;20024;-57
2024/04/03 10:38:14;;;;;;;4.05;1.70;;;;;;;;;;5056051;28;20036;-57
2024/04/03 10:40:40;;;;;;;3.45;0.90;;;;;;;;;;5055920;28;20043;-58
2024/04/03 10:43:05;;;;;;;2.35;0.93;;;;;;;;;;5055812;28;20043;-56
2024/04/03 10:45:30;;;;;;;3.13;1.30;;;;;;;;;;5055273;28;20430;-58
2024/04/03 10:47:55;;;;;;;4.18;1.10;;;;;;;;;;5055088;28;20078;-58
2024/04/03 10:50:21;;;;;;;3.20;1.10;;;;;;;;;;5055379;28;20467;-57
2024/04/03 10:52:46;;;;;;;3.00;0.95;;;;;;;;;;5055505;28;20025;-58
2024/04/03 10:55:12;;;;;;;3.50;1.05;;;;;;;;;;5055584;28;20404;-57
2024/04/03 10:57:40;;;;;;;4.57;0.93;;;;;;;;;;5054861;28;21094;-58
2024/04/03 11:00:11;;;;;;;5.22;1.00;;;;;;;;;;5055399;28;20028;-57
2024/04/03 11:02:40;;;;;;;3.22;1.10;;;;;;;;;;5055607;28;20072;-54
2024/04/03 11:05:05;;;;;;;3.33;0.90;;;;;;;;;;5056389;28;20016;-58
2024/04/03 11:07:30;;;;;;;3.05;0.85;;;;;;;;;;5055120;28;20025;-57
2024/04/03 11:09:56;;;;;;;4.20;1.60;;;;;;;;;;5055367;28;20028;-57
2024/04/03 11:12:21;;;;;;;2.05;0.80;;;;;;;;;;5055509;28;20024;-57
2024/04/03 11:14:54;;;;;;;3.53;1.67;;;;;;;;;;5055294;28;20167;-56
2024/04/03 11:17:25;;;;;;;2.40;0.90;;;;;;;;;;5055239;28;20025;-54
2024/04/03 11:19:50;;;;;;;2.33;0.80;;;;;;;;;;5055797;28;20107;-58
2024/04/03 11:22:15;;;;;;;4.07;0.80;;;;;;;;;;5056163;28;20061;-57
2024/04/03 11:24:42;;;;;;;1.70;0.80;;;;;;;;;;5055104;28;20048;-57
2024/04/03 11:27:08;;;;;;;2.17;0.65;;;;;;;;;;5037060;28;20025;-57
2024/04/03 11:29:35;;;;;;;3.33;1.00;;;;;;;;;;5055256;28;20024;-57
2024/04/03 11:32:00;;;;;;;2.47;0.90;;;;;;;;;;5054988;28;20074;-56
2024/04/03 11:34:27;;;;;;;3.30;0.70;;;;;;;;;;5055439;28;20016;-57
2024/04/03 11:36:53;;;;;;;2.13;0.80;;;;;;;;;;5055554;28;20099;-57
2024/04/03 11:39:18;;;;;;;3.22;0.82;;;;;;;;;;5055232;28;20482;-58
2024/04/03 11:41:44;;;;;;;3.35;0.77;;;;;;;;;;5054942;28;20060;-57
2024/04/03 11:44:09;;;;;;;2.03;0.70;;;;;;;;;;5054753;28;20460;-58
2024/04/03 11:46:34;;;;;;;2.55;0.82;;;;;;;;;;5054999;28;20027;-57
2024/04/03 11:49:02;;;;;;;3.97;1.10;;;;;;;;;;5055005;28;20544;-57
2024/04/03 11:51:27;;;;;;;3.17;0.80;;;;;;;;;;5054784;28;20016;-57
2024/04/03 11:53:52;;;;;;;2.22;0.65;;;;;;;;;;5054929;28;20079;-57
2024/04/03 11:56:19;;;;;;;1.58;0.80;;;;;;;;;;5054462;28;20036;-56
2024/04/03 11:58:48;;;;;;;1.67;0.70;;;;;;;;;;5054697;28;20104;-57
2024/04/03 12:01:15;;;;;;;1.60;0.70;;;;;;;;;;5054604;28;20017;-57
2024/04/03 12:03:40;;;;;;;1.45;0.80;;;;;;;;;;5054500;28;20025;-57
2024/04/03 12:06:06;;;;;;;3.45;0.70;;;;;;;;;;5054514;28;20078;-56
2024/04/03 12:08:32;;;;;;;3.42;0.82;;;;;;;;;;5056429;28;20025;-57
2024/04/03 12:10:58;;;;;;;2.75;0.90;;;;;;;;;;5058950;28;20083;-57
2024/04/03 12:13:24;;;;;;;2.78;0.70;;;;;;;;;;5058377;28;20400;-56
2024/04/03 12:15:49;;;;;;;1.90;0.70;;;;;;;;;;5058639;28;20017;-57
2024/04/03 12:18:23;;;;;;;3.95;0.90;;;;;;;;;;5058622;28;20016;-57
2024/04/03 12:20:48;;;;;;;1.58;0.63;;;;;;;;;;5058514;28;20025;-57
2024/04/03 12:23:14;;;;;;;1.80;0.95;;;;;;;;;;5058577;28;20453;-57
2024/04/03 12:25:39;;;;;;;2.55;0.80;;;;;;;;;;5058231;28;20434;-57
2024/04/03 12:28:04;;;;;;;2.15;0.82;;;;;;;;;;5058432;28;20017;-57
2024/04/03 12:30:29;;;;;;;2.38;0.80;;;;;;;;;;5058372;28;20025;-57
2024/04/03 12:32:55;;;;;;;1.35;0.57;;;;;;;;;;5058119;28;20041;-52
2024/04/03 12:35:21;;;;;;;2.45;0.80;;;;;;;;;;5058460;28;20436;-56
2024/04/03 12:37:46;;;;;;;1.25;0.70;;;;;;;;;;5058512;28;20067;-56
2024/04/03 12:40:11;;;;;;;1.85;0.70;;;;;;;;;;5058209;28;20048;-57
2024/04/03 12:42:36;;;;;;;2.33;0.80;;;;;;;;;;5058009;28;20013;-57
2024/04/03 12:45:02;;;;;;;1.75;0.68;;;;;;;;;;5057912;28;20365;-57
2024/04/03 12:47:28;;;;;;;4.88;0.90;;;;;;;;;;5058050;28;20020;-56
2024/04/03 12:49:53;;;;;;;3.22;0.90;;;;;;;;;;5057706;28;20033;-56
2024/04/03 12:52:18;;;;;;;1.73;0.65;;;;;;;;;;5057958;28;20013;-58
2024/04/03 12:54:44;;;;;;;2.08;0.65;;;;;;;;;;5057681;28;20037;-57
2024/04/03 12:57:09;;;;;;;2.95;0.95;;;;;;;;;;5058135;28;20075;-58
2024/04/03 12:59:35;;;;;;;3.22;0.90;;;;;;;;;;5057800;28;20017;-58
2024/04/03 13:02:00;;;;;;;3.10;0.80;;;;;;;;;;5057561;28;20025;-55
2024/04/03 13:04:26;;;;;;;2.47;0.80;;;;;;;;;;5057875;28;20021;-55
2024/04/03 13:06:51;;;;;;;2.63;0.98;;;;;;;;;;5057552;28;20078;-58
2024/04/03 13:09:16;;;;;;;1.42;0.82;;;;;;;;;;5057841;28;20013;-56
2024/04/03 13:11:43;;;;;;;2.80;0.90;;;;;;;;;;5057744;28;20021;-56
2024/04/03 13:14:08;;;;;;;1.60;0.80;;;;;;;;;;5057266;28;20025;-57
2024/04/03 13:16:34;;;;;;;9.13;1.08;;;;;;;;;;5057259;28;20095;-56
2024/04/03 13:18:59;;;;;;;2.50;0.90;;;;;;;;;;5057192;28;20021;-57
2024/04/03 13:21:24;;;;;;;3.80;0.90;;;;;;;;;;5056770;28;20024;-57
2024/04/03 13:23:50;;;;;;;1.33;0.80;;;;;;;;;;5057653;28;20028;-57
2024/04/03 13:26:16;;;;;;;2.78;0.98;;;;;;;;;;5057079;28;20021;-57
2024/04/03 13:28:41;;;;;;;3.65;0.85;;;;;;;;;;5057208;28;20462;-54
2024/04/03 13:31:06;;;;;;;2.40;1.20;;;;;;;;;;5057109;28;20434;-57
2024/04/03 13:33:31;;;;;;;4.65;1.00;;;;;;;;;;5057025;28;20341;-58
2024/04/03 13:35:57;;;;;;;1.90;0.90;;;;;;;;;;5056768;28;20066;-58
2024/04/03 13:38:22;;;;;;;2.95;0.90;;;;;;;;;;5056583;28;20032;-57
2024/04/03 13:40:48;;;;;;;1.95;1.02;;;;;;;;;;5057537;28;20017;-58
2024/04/03 13:43:13;;;;;;;2.25;0.98;;;;;;;;;;5056609;28;20396;-57
2024/04/03 13:45:38;;;;;;;4.30;0.90;;;;;;;;;;5056708;28;20025;-57
2024/04/03 13:48:04;;;;;;;6.50;0.93;;;;;;;;;;5057170;28;20029;-57
2024/04/03 13:50:29;;;;;;;2.53;0.82;;;;;;;;;;5057618;28;20051;-57
2024/04/03 13:52:54;;;;;;;4.60;1.45;;;;;;;;;;5056805;28;20017;-57
2024/04/03 13:55:20;;;;;;;2.38;0.90;;;;;;;;;;5056841;28;20055;-57
2024/04/03 13:57:45;;;;;;;3.72;0.90;;;;;;;;;;5056734;28;20051;-58
2024/04/03 14:00:21;;;;;;;4.38;1.20;;;;;;;;;;5056759;28;20083;-57
2024/04/03 14:02:46;;;;;;;4.40;1.20;;;;;;;;;;5056710;28;20040;-57
2024/04/03 14:05:12;;;;;;;3.35;1.00;;;;;;;;;;5056658;28;20031;-58
2024/04/03 14:07:37;;;;;;;4.22;1.10;;;;;;;;;;5056786;28;20032;-53
2024/04/03 14:10:02;;;;;;;2.80;1.17;;;;;;;;;;5056243;28;20017;-58
2024/04/03 14:12:27;;;;;;;5.55;1.50;;;;;;;;;;5056032;28;20021;-57
2024/04/03 14:14:53;;;;;;;3.30;1.10;;;;;;;;;;5056431;28;20021;-54
2024/04/03 14:17:18;;;;;;;4.60;1.20;;;;;;;;;;5056362;28;20021;-56
2024/04/03 14:19:43;;;;;;;4.07;1.75;;;;;;;;;;5056332;28;20025;-56
2024/04/03 14:22:08;;;;;;;3.47;1.20;;;;;;;;;;5056108;28;20025;-56
2024/04/03 14:24:34;;;;;;;2.42;1.17;;;;;;;;;;5056143;28;20116;-54
2024/04/03 14:26:59;;;;;;;3.45;1.15;;;;;;;;;;5038681;28;20020;-58
2024/04/03 14:29:24;;;;;;;4.10;1.40;;;;;;;;;;5056008;28;20430;-57
2024/04/03 14:31:49;;;;;;;2.78;1.20;;;;;;;;;;5028648;28;20484;-57
2024/04/03 14:34:17;;;;;;;2.63;1.00;;;;;;;;;;5032678;28;20357;-58